sensor_id;sensor_type;location;lat;lon;timestamp;temperature;humidity
4964;DHT22;2497;47.410;9.740;2022-12-07T00:01:40;1.30;99.90
4964;DHT22;2497;47.410;9.740;2022-12-07T00:04:11;1.40;99.90
4964;DHT22;2497;47.410;9.740;2022-12-07T00:06:40;1.40;99.90
4964;DHT22;2497;47.410;9.740;2022-12-07T00:09:10;1.40;99.90
4964;DHT22;2497;47.410;9.740;2022-12-07T00:11:38;1.40;99.90
4964;DHT22;2497;47.410;9.740;2022-12-07T00:14:08;1.40;99.90
4964;DHT22;2497;47.410;9.740;2022-12-07T00:16:39;1.40;99.90
4964;DHT22;2497;47.410;9.740;2022-12-07T00:19:06;1.50;99.90
4964;DHT22;2497;47.410;9.740;2022-12-07T00:21:35;1.40;99.90
4964;DHT22;2497;47.410;9.740;2022-12-07T00:24:04;1.40;99.90
4964;DHT22;2497;47.410;9.740;2022-12-07T00:26:33;1.40;99.90
4964;DHT22;2497;47.410;9.740;2022-12-07T00:29:03;1.40;99.90
4964;DHT22;2497;47.410;9.740;2022-12-07T00:31:33;1.40;99.90
4964;DHT22;2497;47.410;9.740;2022-12-07T00:34:03;1.40;99.90
4964;DHT22;2497;47.410;9.740;2022-12-07T00:36:30;1.30;99.90
4964;DHT22;2497;47.410;9.740;2022-12-07T00:38:58;1.30;99.90
4964;DHT22;2497;47.410;9.740;2022-12-07T00:41:27;1.30;99.90
4964;DHT22;2497;47.410;9.740;2022-12-07T00:43:55;1.30;99.90
4964;DHT22;2497;47.410;9.740;2022-12-07T00:46:24;1.40;99.90
4964;DHT22;2497;47.410;9.740;2022-12-07T00:48:52;1.50;99.90
4964;DHT22;2497;47.410;9.740;2022-12-07T00:51:23;1.40;99.90
4964;DHT22;2497;47.410;9.740;2022-12-07T00:53:51;1.40;99.90
4964;DHT22;2497;47.410;9.740;2022-12-07T00:56:20;1.40;99.90
4964;DHT22;2497;47.410;9.740;2022-12-07T00:58:52;1.30;99.90
4964;DHT22;2497;47.410;9.740;2022-12-07T01:01:20;1.30;99.90
4964;DHT22;2497;47.410;9.740;2022-12-07T01:03:47;1.20;99.90
4964;DHT22;2497;47.410;9.740;2022-12-07T01:06:15;1.10;99.90
4964;DHT22;2497;47.410;9.740;2022-12-07T01:08:45;1.20;99.90
4964;DHT22;2497;47.410;9.740;2022-12-07T01:11:14;1.10;99.90
4964;DHT22;2497;47.410;9.740;2022-12-07T01:13:42;1.10;99.90
4964;DHT22;2497;47.410;9.740;2022-12-07T01:16:10;1.10;99.90
4964;DHT22;2497;47.410;9.740;2022-12-07T01:18:38;1.10;99.90
4964;DHT22;2497;47.410;9.740;2022-12-07T01:21:08;1.00;99.90
4964;DHT22;2497;47.410;9.740;2022-12-07T01:23:36;1.00;99.90
4964;DHT22;2497;47.410;9.740;2022-12-07T01:26:07;1.10;99.90
4964;DHT22;2497;47.410;9.740;2022-12-07T01:28:35;1.20;99.90
4964;DHT22;2497;47.410;9.740;2022-12-07T01:31:04;1.30;99.90
4964;DHT22;2497;47.410;9.740;2022-12-07T01:33:34;1.30;99.90
4964;DHT22;2497;47.410;9.740;2022-12-07T01:36:03;1.20;99.90
4964;DHT22;2497;47.410;9.740;2022-12-07T01:38:31;1.20;99.90
4964;DHT22;2497;47.410;9.740;2022-12-07T01:41:00;1.10;99.90
4964;DHT22;2497;47.410;9.740;2022-12-07T01:43:31;1.10;99.90
4964;DHT22;2497;47.410;9.740;2022-12-07T01:45:58;1.10;99.90
4964;DHT22;2497;47.410;9.740;2022-12-07T01:48:28;1.10;99.90
4964;DHT22;2497;47.410;9.740;2022-12-07T01:51:01;1.20;99.90
4964;DHT22;2497;47.410;9.740;2022-12-07T01:53:30;1.20;99.90
4964;DHT22;2497;47.410;9.740;2022-12-07T01:55:59;1.30;99.90
4964;DHT22;2497;47.410;9.740;2022-12-07T01:58:29;1.20;99.90
4964;DHT22;2497;47.410;9.740;2022-12-07T02:00:56;1.10;99.90
4964;DHT22;2497;47.410;9.740;2022-12-07T02:03:27;1.10;99.90
4964;DHT22;2497;47.410;9.740;2022-12-07T02:05:57;1.00;99.90
4964;DHT22;2497;47.410;9.740;2022-12-07T02:08:25;1.00;99.90
4964;DHT22;2497;47.410;9.740;2022-12-07T02:10:53;0.90;99.90
4964;DHT22;2497;47.410;9.740;2022-12-07T02:13:22;0.90;99.90
4964;DHT22;2497;47.410;9.740;2022-12-07T02:16:08;0.90;99.90
4964;DHT22;2497;47.410;9.740;2022-12-07T02:18:49;0.90;99.90
4964;DHT22;2497;47.410;9.740;2022-12-07T02:21:27;0.90;99.90
4964;DHT22;2497;47.410;9.740;2022-12-07T02:24:16;0.90;99.90
4964;DHT22;2497;47.410;9.740;2022-12-07T02:27:10;0.90;99.90
4964;DHT22;2497;47.410;9.740;2022-12-07T02:29:46;0.90;99.90
4964;DHT22;2497;47.410;9.740;2022-12-07T02:32:18;0.90;99.90
4964;DHT22;2497;47.410;9.740;2022-12-07T02:34:50;1.00;99.90
4964;DHT22;2497;47.410;9.740;2022-12-07T02:37:26;0.90;99.90
4964;DHT22;2497;47.410;9.740;2022-12-07T02:40:00;1.20;99.90
4964;DHT22;2497;47.410;9.740;2022-12-07T02:42:34;1.10;99.90
4964;DHT22;2497;47.410;9.740;2022-12-07T02:45:07;1.30;99.90
4964;DHT22;2497;47.410;9.740;2022-12-07T02:47:36;1.20;99.90
4964;DHT22;2497;47.410;9.740;2022-12-07T02:50:05;1.20;99.90
4964;DHT22;2497;47.410;9.740;2022-12-07T02:52:33;1.20;99.90
4964;DHT22;2497;47.410;9.740;2022-12-07T02:55:00;1.30;99.90
4964;DHT22;2497;47.410;9.740;2022-12-07T02:57:41;1.20;99.90
4964;DHT22;2497;47.410;9.740;2022-12-07T03:00:13;1.10;99.90
4964;DHT22;2497;47.410;9.740;2022-12-07T03:02:50;1.10;99.90
4964;DHT22;2497;47.410;9.740;2022-12-07T03:05:43;1.10;99.90
4964;DHT22;2497;47.410;9.740;2022-12-07T03:08:18;1.10;99.90
4964;DHT22;2497;47.410;9.740;2022-12-07T03:10:54;1.00;99.90
4964;DHT22;2497;47.410;9.740;2022-12-07T03:13:27;1.00;99.90
4964;DHT22;2497;47.410;9.740;2022-12-07T03:16:00;1.10;99.90
4964;DHT22;2497;47.410;9.740;2022-12-07T03:18:31;1.10;99.90
4964;DHT22;2497;47.410;9.740;2022-12-07T03:21:04;1.10;99.90
4964;DHT22;2497;47.410;9.740;2022-12-07T03:23:33;1.10;99.90
4964;DHT22;2497;47.410;9.740;2022-12-07T03:26:03;1.00;99.90
4964;DHT22;2497;47.410;9.740;2022-12-07T03:28:34;1.00;99.90
4964;DHT22;2497;47.410;9.740;2022-12-07T03:31:06;1.10;99.90
4964;DHT22;2497;47.410;9.740;2022-12-07T03:33:40;1.10;99.90
4964;DHT22;2497;47.410;9.740;2022-12-07T03:36:14;1.10;99.90
4964;DHT22;2497;47.410;9.740;2022-12-07T03:38:46;1.10;99.90
4964;DHT22;2497;47.410;9.740;2022-12-07T03:41:19;1.20;99.90
4964;DHT22;2497;47.410;9.740;2022-12-07T03:43:49;1.10;99.90
4964;DHT22;2497;47.410;9.740;2022-12-07T03:46:24;1.10;99.90
4964;DHT22;2497;47.410;9.740;2022-12-07T03:48:59;1.00;99.90
4964;DHT22;2497;47.410;9.740;2022-12-07T03:51:32;1.00;99.90
4964;DHT22;2497;47.410;9.740;2022-12-07T03:54:09;1.00;99.90
4964;DHT22;2497;47.410;9.740;2022-12-07T03:56:38;1.00;99.90
4964;DHT22;2497;47.410;9.740;2022-12-07T03:59:07;1.10;99.90
4964;DHT22;2497;47.410;9.740;2022-12-07T04:01:36;1.10;99.90
4964;DHT22;2497;47.410;9.740;2022-12-07T04:04:04;1.00;99.90
4964;DHT22;2497;47.410;9.740;2022-12-07T04:06:31;1.00;99.90
4964;DHT22;2497;47.410;9.740;2022-12-07T04:08:59;0.90;99.90
4964;DHT22;2497;47.410;9.740;2022-12-07T04:11:26;1.00;99.90
4964;DHT22;2497;47.410;9.740;2022-12-07T04:13:54;1.00;99.90
4964;DHT22;2497;47.410;9.740;2022-12-07T04:16:40;1.00;99.90
4964;DHT22;2497;47.410;9.740;2022-12-07T04:19:07;0.90;99.90
4964;DHT22;2497;47.410;9.740;2022-12-07T04:21:34;0.90;99.90
4964;DHT22;2497;47.410;9.740;2022-12-07T04:24:02;0.90;99.90
4964;DHT22;2497;47.410;9.740;2022-12-07T04:26:30;1.00;99.90
4964;DHT22;2497;47.410;9.740;2022-12-07T04:28:57;1.00;99.90
4964;DHT22;2497;47.410;9.740;2022-12-07T04:31:25;1.10;99.90
4964;DHT22;2497;47.410;9.740;2022-12-07T04:33:53;1.00;99.90
4964;DHT22;2497;47.410;9.740;2022-12-07T04:36:21;0.90;99.90
4964;DHT22;2497;47.410;9.740;2022-12-07T04:38:48;0.90;99.90
4964;DHT22;2497;47.410;9.740;2022-12-07T04:41:16;0.90;99.90
4964;DHT22;2497;47.410;9.740;2022-12-07T04:43:43;1.00;99.90
4964;DHT22;2497;47.410;9.740;2022-12-07T04:46:10;1.10;99.90
4964;DHT22;2497;47.410;9.740;2022-12-07T04:48:38;1.10;99.90
4964;DHT22;2497;47.410;9.740;2022-12-07T04:51:06;1.10;99.90
4964;DHT22;2497;47.410;9.740;2022-12-07T04:53:34;1.20;99.90
4964;DHT22;2497;47.410;9.740;2022-12-07T04:56:01;1.20;99.90
4964;DHT22;2497;47.410;9.740;2022-12-07T04:58:28;1.10;99.90
4964;DHT22;2497;47.410;9.740;2022-12-07T05:00:56;1.20;99.90
4964;DHT22;2497;47.410;9.740;2022-12-07T05:03:23;1.30;99.90
4964;DHT22;2497;47.410;9.740;2022-12-07T05:05:50;1.30;99.90
4964;DHT22;2497;47.410;9.740;2022-12-07T05:08:20;1.40;99.90
4964;DHT22;2497;47.410;9.740;2022-12-07T05:10:48;1.30;99.90
4964;DHT22;2497;47.410;9.740;2022-12-07T05:13:16;1.20;99.90
4964;DHT22;2497;47.410;9.740;2022-12-07T05:15:43;1.20;99.90
4964;DHT22;2497;47.410;9.740;2022-12-07T05:18:11;1.10;99.90
4964;DHT22;2497;47.410;9.740;2022-12-07T05:20:38;1.10;99.90
4964;DHT22;2497;47.410;9.740;2022-12-07T05:23:05;1.00;99.90
4964;DHT22;2497;47.410;9.740;2022-12-07T05:25:34;0.90;99.90
4964;DHT22;2497;47.410;9.740;2022-12-07T05:28:01;0.90;99.90
4964;DHT22;2497;47.410;9.740;2022-12-07T05:30:29;0.90;99.90
4964;DHT22;2497;47.410;9.740;2022-12-07T05:32:56;0.80;99.90
4964;DHT22;2497;47.410;9.740;2022-12-07T05:35:23;0.90;99.90
4964;DHT22;2497;47.410;9.740;2022-12-07T05:37:51;0.90;99.90
4964;DHT22;2497;47.410;9.740;2022-12-07T05:40:18;0.80;99.90
4964;DHT22;2497;47.410;9.740;2022-12-07T05:42:47;0.80;99.90
4964;DHT22;2497;47.410;9.740;2022-12-07T05:45:13;0.90;99.90
4964;DHT22;2497;47.410;9.740;2022-12-07T05:47:40;0.80;99.90
4964;DHT22;2497;47.410;9.740;2022-12-07T05:50:08;0.80;99.90
4964;DHT22;2497;47.410;9.740;2022-12-07T05:52:35;0.80;99.90
4964;DHT22;2497;47.410;9.740;2022-12-07T05:55:03;0.80;99.90
4964;DHT22;2497;47.410;9.740;2022-12-07T05:57:32;0.90;99.90
4964;DHT22;2497;47.410;9.740;2022-12-07T06:00:04;1.00;99.90
4964;DHT22;2497;47.410;9.740;2022-12-07T06:02:30;0.90;99.90
4964;DHT22;2497;47.410;9.740;2022-12-07T06:04:57;1.00;99.90
4964;DHT22;2497;47.410;9.740;2022-12-07T06:07:25;1.00;99.90
4964;DHT22;2497;47.410;9.740;2022-12-07T06:09:52;1.00;99.90
4964;DHT22;2497;47.410;9.740;2022-12-07T06:12:19;1.00;99.90
4964;DHT22;2497;47.410;9.740;2022-12-07T06:15:02;0.90;99.90
4964;DHT22;2497;47.410;9.740;2022-12-07T06:17:29;1.00;99.90
4964;DHT22;2497;47.410;9.740;2022-12-07T06:19:56;1.00;99.90
4964;DHT22;2497;47.410;9.740;2022-12-07T06:22:24;1.00;99.90
4964;DHT22;2497;47.410;9.740;2022-12-07T06:24:51;1.00;99.90
4964;DHT22;2497;47.410;9.740;2022-12-07T06:27:19;1.00;99.90
4964;DHT22;2497;47.410;9.740;2022-12-07T06:29:46;1.00;99.90
4964;DHT22;2497;47.410;9.740;2022-12-07T06:32:15;1.10;99.90
4964;DHT22;2497;47.410;9.740;2022-12-07T06:34:43;1.20;99.90
4964;DHT22;2497;47.410;9.740;2022-12-07T06:37:10;1.20;99.90
4964;DHT22;2497;47.410;9.740;2022-12-07T06:39:38;1.20;99.90
4964;DHT22;2497;47.410;9.740;2022-12-07T06:42:05;1.20;99.90
4964;DHT22;2497;47.410;9.740;2022-12-07T06:44:32;1.30;99.90
4964;DHT22;2497;47.410;9.740;2022-12-07T06:47:00;1.30;99.90
4964;DHT22;2497;47.410;9.740;2022-12-07T06:49:29;1.30;99.90
4964;DHT22;2497;47.410;9.740;2022-12-07T06:51:56;1.30;99.90
4964;DHT22;2497;47.410;9.740;2022-12-07T06:54:24;1.30;99.90
4964;DHT22;2497;47.410;9.740;2022-12-07T06:56:51;1.30;99.90
4964;DHT22;2497;47.410;9.740;2022-12-07T06:59:18;1.40;99.90
4964;DHT22;2497;47.410;9.740;2022-12-07T07:01:46;1.40;99.90
4964;DHT22;2497;47.410;9.740;2022-12-07T07:04:13;1.40;99.90
4964;DHT22;2497;47.410;9.740;2022-12-07T07:06:43;1.40;99.90
4964;DHT22;2497;47.410;9.740;2022-12-07T07:09:10;1.40;99.90
4964;DHT22;2497;47.410;9.740;2022-12-07T07:11:38;1.40;99.90
4964;DHT22;2497;47.410;9.740;2022-12-07T07:14:05;1.40;99.90
4964;DHT22;2497;47.410;9.740;2022-12-07T07:16:32;1.40;99.90
4964;DHT22;2497;47.410;9.740;2022-12-07T07:19:00;1.40;99.90
4964;DHT22;2497;47.410;9.740;2022-12-07T07:21:27;1.40;99.90
4964;DHT22;2497;47.410;9.740;2022-12-07T07:23:57;1.50;99.90
4964;DHT22;2497;47.410;9.740;2022-12-07T07:26:24;1.50;99.90
4964;DHT22;2497;47.410;9.740;2022-12-07T07:28:51;1.50;99.90
4964;DHT22;2497;47.410;9.740;2022-12-07T07:31:19;1.60;99.90
4964;DHT22;2497;47.410;9.740;2022-12-07T07:33:46;1.50;99.90
4964;DHT22;2497;47.410;9.740;2022-12-07T07:36:14;1.40;99.90
4964;DHT22;2497;47.410;9.740;2022-12-07T07:38:41;1.40;99.90
4964;DHT22;2497;47.410;9.740;2022-12-07T07:41:10;1.40;99.90
4964;DHT22;2497;47.410;9.740;2022-12-07T07:43:38;1.30;99.90
4964;DHT22;2497;47.410;9.740;2022-12-07T07:46:05;1.30;99.90
4964;DHT22;2497;47.410;9.740;2022-12-07T07:48:33;1.20;99.90
4964;DHT22;2497;47.410;9.740;2022-12-07T07:51:00;1.20;99.90
4964;DHT22;2497;47.410;9.740;2022-12-07T07:53:27;1.20;99.90
4964;DHT22;2497;47.410;9.740;2022-12-07T07:55:55;1.20;99.90
4964;DHT22;2497;47.410;9.740;2022-12-07T07:58:24;1.20;99.90
4964;DHT22;2497;47.410;9.740;2022-12-07T08:00:51;1.20;99.90
4964;DHT22;2497;47.410;9.740;2022-12-07T08:03:19;1.20;99.90
4964;DHT22;2497;47.410;9.740;2022-12-07T08:05:46;1.20;99.90
4964;DHT22;2497;47.410;9.740;2022-12-07T08:08:13;1.10;99.90
4964;DHT22;2497;47.410;9.740;2022-12-07T08:10:41;1.10;99.90
4964;DHT22;2497;47.410;9.740;2022-12-07T08:13:08;1.20;99.90
4964;DHT22;2497;47.410;9.740;2022-12-07T08:15:43;1.30;99.90
4964;DHT22;2497;47.410;9.740;2022-12-07T08:18:11;1.40;99.90
4964;DHT22;2497;47.410;9.740;2022-12-07T08:20:40;1.40;99.90
4964;DHT22;2497;47.410;9.740;2022-12-07T08:23:08;1.40;99.90
4964;DHT22;2497;47.410;9.740;2022-12-07T08:25:36;1.50;99.90
4964;DHT22;2497;47.410;9.740;2022-12-07T08:28:04;1.50;99.90
4964;DHT22;2497;47.410;9.740;2022-12-07T08:30:31;1.50;99.90
4964;DHT22;2497;47.410;9.740;2022-12-07T08:33:00;1.60;99.90
4964;DHT22;2497;47.410;9.740;2022-12-07T08:35:28;1.60;99.90
4964;DHT22;2497;47.410;9.740;2022-12-07T08:37:55;1.70;99.90
4964;DHT22;2497;47.410;9.740;2022-12-07T08:40:23;1.70;99.90
4964;DHT22;2497;47.410;9.740;2022-12-07T08:42:51;1.70;99.90
4964;DHT22;2497;47.410;9.740;2022-12-07T08:45:19;1.70;99.90
4964;DHT22;2497;47.410;9.740;2022-12-07T08:47:50;1.70;99.90
4964;DHT22;2497;47.410;9.740;2022-12-07T08:50:21;1.70;99.90
4964;DHT22;2497;47.410;9.740;2022-12-07T08:52:51;1.70;99.90
4964;DHT22;2497;47.410;9.740;2022-12-07T08:55:19;1.70;99.90
4964;DHT22;2497;47.410;9.740;2022-12-07T08:57:48;1.70;99.90
4964;DHT22;2497;47.410;9.740;2022-12-07T09:00:15;1.60;99.90
4964;DHT22;2497;47.410;9.740;2022-12-07T09:02:43;1.60;99.90
4964;DHT22;2497;47.410;9.740;2022-12-07T09:05:11;1.60;99.90
4964;DHT22;2497;47.410;9.740;2022-12-07T09:07:42;1.70;99.90
4964;DHT22;2497;47.410;9.740;2022-12-07T09:10:10;1.70;99.90
4964;DHT22;2497;47.410;9.740;2022-12-07T09:12:38;1.70;99.90
4964;DHT22;2497;47.410;9.740;2022-12-07T09:15:06;1.70;99.90
4964;DHT22;2497;47.410;9.740;2022-12-07T09:17:34;1.70;99.90
4964;DHT22;2497;47.410;9.740;2022-12-07T09:20:02;1.70;99.90
4964;DHT22;2497;47.410;9.740;2022-12-07T09:22:30;1.60;99.90
4964;DHT22;2497;47.410;9.740;2022-12-07T09:24:59;1.60;99.90
4964;DHT22;2497;47.410;9.740;2022-12-07T09:27:26;1.70;99.90
4964;DHT22;2497;47.410;9.740;2022-12-07T09:29:54;1.70;99.90
4964;DHT22;2497;47.410;9.740;2022-12-07T09:32:22;1.80;99.90
4964;DHT22;2497;47.410;9.740;2022-12-07T09:34:50;1.80;99.90
4964;DHT22;2497;47.410;9.740;2022-12-07T09:37:17;1.90;99.90
4964;DHT22;2497;47.410;9.740;2022-12-07T09:39:44;2.00;99.90
4964;DHT22;2497;47.410;9.740;2022-12-07T09:42:26;2.00;99.90
4964;DHT22;2497;47.410;9.740;2022-12-07T09:44:54;2.10;99.90
4964;DHT22;2497;47.410;9.740;2022-12-07T09:47:22;2.10;99.90
4964;DHT22;2497;47.410;9.740;2022-12-07T09:49:49;2.10;99.90
4964;DHT22;2497;47.410;9.740;2022-12-07T09:52:19;2.20;99.90
4964;DHT22;2497;47.410;9.740;2022-12-07T09:54:49;2.10;99.90
4964;DHT22;2497;47.410;9.740;2022-12-07T09:57:24;2.10;99.90
4964;DHT22;2497;47.410;9.740;2022-12-07T10:00:00;2.10;99.90
4964;DHT22;2497;47.410;9.740;2022-12-07T10:02:35;2.10;99.90
4964;DHT22;2497;47.410;9.740;2022-12-07T10:05:05;2.00;99.90
4964;DHT22;2497;47.410;9.740;2022-12-07T10:07:32;2.10;99.90
4964;DHT22;2497;47.410;9.740;2022-12-07T10:10:03;2.10;99.90
4964;DHT22;2497;47.410;9.740;2022-12-07T10:12:55;2.10;99.90
4964;DHT22;2497;47.410;9.740;2022-12-07T10:15:24;2.10;99.90
4964;DHT22;2497;47.410;9.740;2022-12-07T10:18:18;2.10;99.90
4964;DHT22;2497;47.410;9.740;2022-12-07T10:20:46;2.10;99.90
4964;DHT22;2497;47.410;9.740;2022-12-07T10:23:14;2.10;99.90
4964;DHT22;2497;47.410;9.740;2022-12-07T10:25:43;2.20;99.90
4964;DHT22;2497;47.410;9.740;2022-12-07T10:28:17;2.40;99.90
4964;DHT22;2497;47.410;9.740;2022-12-07T10:30:54;2.40;99.90
4964;DHT22;2497;47.410;9.740;2022-12-07T10:33:33;2.30;99.90
4964;DHT22;2497;47.410;9.740;2022-12-07T10:36:15;2.40;99.90
4964;DHT22;2497;47.410;9.740;2022-12-07T10:38:45;2.40;99.90
4964;DHT22;2497;47.410;9.740;2022-12-07T10:41:12;2.50;99.90
4964;DHT22;2497;47.410;9.740;2022-12-07T10:43:50;2.50;99.90
4964;DHT22;2497;47.410;9.740;2022-12-07T10:49:48;2.60;99.90
4964;DHT22;2497;47.410;9.740;2022-12-07T10:52:30;2.70;99.90
4964;DHT22;2497;47.410;9.740;2022-12-07T10:55:11;2.60;99.90
4964;DHT22;2497;47.410;9.740;2022-12-07T10:57:50;2.60;99.90
4964;DHT22;2497;47.410;9.740;2022-12-07T11:00:22;2.70;99.90
4964;DHT22;2497;47.410;9.740;2022-12-07T11:03:13;2.80;99.90
4964;DHT22;2497;47.410;9.740;2022-12-07T11:05:52;2.80;99.90
4964;DHT22;2497;47.410;9.740;2022-12-07T11:08:35;2.70;99.90
4964;DHT22;2497;47.410;9.740;2022-12-07T11:11:09;2.60;99.90
4964;DHT22;2497;47.410;9.740;2022-12-07T11:13:44;2.50;99.90
4964;DHT22;2497;47.410;9.740;2022-12-07T11:16:25;2.50;99.90
4964;DHT22;2497;47.410;9.740;2022-12-07T11:19:32;2.50;99.90
4964;DHT22;2497;47.410;9.740;2022-12-07T11:22:06;2.50;99.90
4964;DHT22;2497;47.410;9.740;2022-12-07T11:24:42;2.60;99.90
4964;DHT22;2497;47.410;9.740;2022-12-07T11:27:20;2.70;99.90
4964;DHT22;2497;47.410;9.740;2022-12-07T11:30:08;2.70;99.90
4964;DHT22;2497;47.410;9.740;2022-12-07T11:32:53;2.80;99.90
4964;DHT22;2497;47.410;9.740;2022-12-07T11:35:30;2.80;99.90
4964;DHT22;2497;47.410;9.740;2022-12-07T11:38:10;2.90;99.90
4964;DHT22;2497;47.410;9.740;2022-12-07T11:40:40;2.80;99.90
4964;DHT22;2497;47.410;9.740;2022-12-07T11:43:17;2.80;99.90
4964;DHT22;2497;47.410;9.740;2022-12-07T11:45:50;2.70;99.90
4964;DHT22;2497;47.410;9.740;2022-12-07T11:48:25;2.70;99.90
4964;DHT22;2497;47.410;9.740;2022-12-07T11:50:58;2.80;99.90
4964;DHT22;2497;47.410;9.740;2022-12-07T11:53:29;2.90;99.90
4964;DHT22;2497;47.410;9.740;2022-12-07T11:56:03;2.90;99.90
4964;DHT22;2497;47.410;9.740;2022-12-07T11:58:46;3.10;99.90
4964;DHT22;2497;47.410;9.740;2022-12-07T12:01:23;3.10;99.90
4964;DHT22;2497;47.410;9.740;2022-12-07T12:03:57;3.10;99.90
4964;DHT22;2497;47.410;9.740;2022-12-07T12:06:27;3.20;99.90
4964;DHT22;2497;47.410;9.740;2022-12-07T12:09:00;3.10;99.90
4964;DHT22;2497;47.410;9.740;2022-12-07T12:11:55;3.20;99.90
4964;DHT22;2497;47.410;9.740;2022-12-07T12:14:35;3.10;99.90
4964;DHT22;2497;47.410;9.740;2022-12-07T12:20:20;3.10;99.90
4964;DHT22;2497;47.410;9.740;2022-12-07T12:22:53;3.10;99.90
4964;DHT22;2497;47.410;9.740;2022-12-07T12:25:23;3.10;99.90
4964;DHT22;2497;47.410;9.740;2022-12-07T12:27:55;3.30;99.90
4964;DHT22;2497;47.410;9.740;2022-12-07T12:30:30;3.20;99.90
4964;DHT22;2497;47.410;9.740;2022-12-07T12:33:03;3.20;99.90
4964;DHT22;2497;47.410;9.740;2022-12-07T12:35:34;3.20;99.90
4964;DHT22;2497;47.410;9.740;2022-12-07T12:38:39;3.20;99.90
4964;DHT22;2497;47.410;9.740;2022-12-07T12:50:32;3.40;99.90
4964;DHT22;2497;47.410;9.740;2022-12-07T12:53:16;3.30;99.90
4964;DHT22;2497;47.410;9.740;2022-12-07T12:56:14;3.30;99.90
4964;DHT22;2497;47.410;9.740;2022-12-07T12:58:46;3.50;99.90
4964;DHT22;2497;47.410;9.740;2022-12-07T13:01:44;3.60;99.90
4964;DHT22;2497;47.410;9.740;2022-12-07T13:04:39;3.60;99.90
4964;DHT22;2497;47.410;9.740;2022-12-07T13:10:41;3.80;99.90
4964;DHT22;2497;47.410;9.740;2022-12-07T13:13:32;3.80;99.90
4964;DHT22;2497;47.410;9.740;2022-12-07T13:22:52;4.00;99.90
4964;DHT22;2497;47.410;9.740;2022-12-07T13:25:31;3.90;99.90
4964;DHT22;2497;47.410;9.740;2022-12-07T13:28:07;4.00;99.90
4964;DHT22;2497;47.410;9.740;2022-12-07T13:30:44;3.90;99.90
4964;DHT22;2497;47.410;9.740;2022-12-07T13:33:13;3.80;99.90
4964;DHT22;2497;47.410;9.740;2022-12-07T13:35:41;3.80;99.90
4964;DHT22;2497;47.410;9.740;2022-12-07T13:38:25;3.70;99.90
4964;DHT22;2497;47.410;9.740;2022-12-07T13:41:03;3.70;99.90
4964;DHT22;2497;47.410;9.740;2022-12-07T13:43:41;3.70;99.90
4964;DHT22;2497;47.410;9.740;2022-12-07T13:46:10;3.70;99.90
4964;DHT22;2497;47.410;9.740;2022-12-07T13:48:45;3.60;99.90
4964;DHT22;2497;47.410;9.740;2022-12-07T13:51:24;3.50;99.90
4964;DHT22;2497;47.410;9.740;2022-12-07T13:54:00;3.50;99.90
4964;DHT22;2497;47.410;9.740;2022-12-07T13:56:32;3.60;99.90
4964;DHT22;2497;47.410;9.740;2022-12-07T13:59:01;3.60;99.90
4964;DHT22;2497;47.410;9.740;2022-12-07T14:01:30;3.50;99.90
4964;DHT22;2497;47.410;9.740;2022-12-07T14:04:19;3.70;99.90
4964;DHT22;2497;47.410;9.740;2022-12-07T14:06:54;3.70;99.90
4964;DHT22;2497;47.410;9.740;2022-12-07T14:09:24;3.70;99.90
4964;DHT22;2497;47.410;9.740;2022-12-07T14:11:54;3.70;99.90
4964;DHT22;2497;47.410;9.740;2022-12-07T14:14:24;3.80;99.90
4964;DHT22;2497;47.410;9.740;2022-12-07T14:17:02;3.80;99.90
4964;DHT22;2497;47.410;9.740;2022-12-07T14:19:43;3.90;99.90
4964;DHT22;2497;47.410;9.740;2022-12-07T14:22:21;3.90;99.90
4964;DHT22;2497;47.410;9.740;2022-12-07T14:24:51;3.90;99.90
4964;DHT22;2497;47.410;9.740;2022-12-07T14:27:29;3.90;99.90
4964;DHT22;2497;47.410;9.740;2022-12-07T14:29:59;3.90;99.90
4964;DHT22;2497;47.410;9.740;2022-12-07T14:32:28;3.80;99.90
4964;DHT22;2497;47.410;9.740;2022-12-07T14:34:59;3.90;99.90
4964;DHT22;2497;47.410;9.740;2022-12-07T14:37:27;3.90;99.90
4964;DHT22;2497;47.410;9.740;2022-12-07T14:39:56;3.90;99.90
4964;DHT22;2497;47.410;9.740;2022-12-07T14:42:26;3.80;99.90
4964;DHT22;2497;47.410;9.740;2022-12-07T14:44:54;3.80;99.90
4964;DHT22;2497;47.410;9.740;2022-12-07T14:47:22;3.70;99.90
4964;DHT22;2497;47.410;9.740;2022-12-07T14:49:49;3.70;99.90
4964;DHT22;2497;47.410;9.740;2022-12-07T14:52:19;3.70;99.90
4964;DHT22;2497;47.410;9.740;2022-12-07T14:54:47;3.70;99.90
4964;DHT22;2497;47.410;9.740;2022-12-07T14:57:16;3.70;99.90
4964;DHT22;2497;47.410;9.740;2022-12-07T14:59:43;3.70;99.90
4964;DHT22;2497;47.410;9.740;2022-12-07T15:02:14;3.70;99.90
4964;DHT22;2497;47.410;9.740;2022-12-07T15:04:42;3.80;99.90
4964;DHT22;2497;47.410;9.740;2022-12-07T15:07:18;3.70;99.90
4964;DHT22;2497;47.410;9.740;2022-12-07T15:09:45;3.70;99.90
4964;DHT22;2497;47.410;9.740;2022-12-07T15:12:13;3.70;99.90
4964;DHT22;2497;47.410;9.740;2022-12-07T15:14:42;3.70;99.90
4964;DHT22;2497;47.410;9.740;2022-12-07T15:17:10;3.70;99.90
4964;DHT22;2497;47.410;9.740;2022-12-07T15:19:38;3.70;99.90
4964;DHT22;2497;47.410;9.740;2022-12-07T15:22:06;3.70;99.90
4964;DHT22;2497;47.410;9.740;2022-12-07T15:24:33;3.70;99.90
4964;DHT22;2497;47.410;9.740;2022-12-07T15:27:01;3.70;99.90
4964;DHT22;2497;47.410;9.740;2022-12-07T15:29:28;3.60;99.90
4964;DHT22;2497;47.410;9.740;2022-12-07T15:31:57;3.60;99.90
4964;DHT22;2497;47.410;9.740;2022-12-07T15:34:26;3.60;99.90
4964;DHT22;2497;47.410;9.740;2022-12-07T15:36:54;3.60;99.90
4964;DHT22;2497;47.410;9.740;2022-12-07T15:39:22;3.60;99.90
4964;DHT22;2497;47.410;9.740;2022-12-07T15:41:49;3.50;99.90
4964;DHT22;2497;47.410;9.740;2022-12-07T15:44:18;3.50;99.90
4964;DHT22;2497;47.410;9.740;2022-12-07T15:47:05;3.50;99.90
4964;DHT22;2497;47.410;9.740;2022-12-07T15:49:32;3.50;99.90
4964;DHT22;2497;47.410;9.740;2022-12-07T15:52:00;3.50;99.90
4964;DHT22;2497;47.410;9.740;2022-12-07T15:54:28;3.50;99.90
4964;DHT22;2497;47.410;9.740;2022-12-07T15:56:56;3.40;99.90
4964;DHT22;2497;47.410;9.740;2022-12-07T15:59:25;3.40;99.90
4964;DHT22;2497;47.410;9.740;2022-12-07T16:01:52;3.40;99.90
4964;DHT22;2497;47.410;9.740;2022-12-07T16:04:21;3.40;99.90
4964;DHT22;2497;47.410;9.740;2022-12-07T16:06:48;3.60;99.90
4964;DHT22;2497;47.410;9.740;2022-12-07T16:09:16;3.60;99.90
4964;DHT22;2497;47.410;9.740;2022-12-07T16:11:44;3.40;99.90
4964;DHT22;2497;47.410;9.740;2022-12-07T16:14:11;3.40;99.90
4964;DHT22;2497;47.410;9.740;2022-12-07T16:16:39;3.30;99.90
4964;DHT22;2497;47.410;9.740;2022-12-07T16:19:07;3.30;99.90
4964;DHT22;2497;47.410;9.740;2022-12-07T16:21:36;3.20;99.90
4964;DHT22;2497;47.410;9.740;2022-12-07T16:24:04;3.10;99.90
4964;DHT22;2497;47.410;9.740;2022-12-07T16:26:32;3.00;99.90
4964;DHT22;2497;47.410;9.740;2022-12-07T16:28:59;3.00;99.90
4964;DHT22;2497;47.410;9.740;2022-12-07T16:31:27;3.00;99.90
4964;DHT22;2497;47.410;9.740;2022-12-07T16:33:57;3.00;99.90
4964;DHT22;2497;47.410;9.740;2022-12-07T16:36:25;2.90;99.90
4964;DHT22;2497;47.410;9.740;2022-12-07T16:38:54;2.90;99.90
4964;DHT22;2497;47.410;9.740;2022-12-07T16:41:22;2.90;99.90
4964;DHT22;2497;47.410;9.740;2022-12-07T16:43:50;2.90;99.90
4964;DHT22;2497;47.410;9.740;2022-12-07T16:46:18;2.90;99.90
4964;DHT22;2497;47.410;9.740;2022-12-07T16:48:45;2.80;99.90
4964;DHT22;2497;47.410;9.740;2022-12-07T16:51:13;2.90;99.90
4964;DHT22;2497;47.410;9.740;2022-12-07T16:53:42;2.90;99.90
4964;DHT22;2497;47.410;9.740;2022-12-07T16:56:13;2.90;99.90
4964;DHT22;2497;47.410;9.740;2022-12-07T16:58:41;2.90;99.90
4964;DHT22;2497;47.410;9.740;2022-12-07T17:01:10;2.90;99.90
4964;DHT22;2497;47.410;9.740;2022-12-07T17:03:37;2.80;99.90
4964;DHT22;2497;47.410;9.740;2022-12-07T17:06:12;2.80;99.90
4964;DHT22;2497;47.410;9.740;2022-12-07T17:08:40;2.80;99.90